Time;durP1;ratioP1;P1;durP2;ratioP2;P2;SDS_P1;SDS_P2;PMS_P1;PMS_P2;Temp;Humidity;BMP_temperature;BMP_pressure;BME280_temperature;BME280_humidity;BME280_pressure;Samples;Min_cycle;Max_cycle;Signal;HPM_P1;HPM_P2
2023/07/12 00:00:19;;;;;;;4.97;1.80;;;;;;;;;;4987773;28;20241;-63
2023/07/12 00:02:45;;;;;;;3.85;1.75;;;;;;;;;;4989741;28;20237;-63
2023/07/12 00:05:10;;;;;;;5.85;1.70;;;;;;;;;;4988016;28;20217;-62
2023/07/12 00:07:35;;;;;;;3.70;1.55;;;;;;;;;;4987799;28;20661;-62
2023/07/12 00:10:01;;;;;;;5.10;1.60;;;;;;;;;;4989085;28;20213;-63
2023/07/12 00:12:26;;;;;;;4.68;1.73;;;;;;;;;;4989076;28;20209;-62
2023/07/12 00:14:51;;;;;;;4.63;1.80;;;;;;;;;;4988192;28;20217;-62
2023/07/12 00:17:18;;;;;;;7.53;1.77;;;;;;;;;;4988433;28;20309;-62
2023/07/12 00:19:44;;;;;;;4.90;1.83;;;;;;;;;;4988783;28;20221;-62
2023/07/12 00:22:10;;;;;;;3.95;1.90;;;;;;;;;;4988074;28;20227;-62
2023/07/12 00:24:35;;;;;;;4.90;1.67;;;;;;;;;;4969396;28;20838;-62
2023/07/12 00:27:00;;;;;;;4.70;1.73;;;;;;;;;;4991610;28;20229;-62
2023/07/12 00:29:26;;;;;;;4.60;1.65;;;;;;;;;;4990030;28;20217;-62
2023/07/12 00:31:51;;;;;;;5.43;1.88;;;;;;;;;;4989418;28;20568;-62
2023/07/12 00:34:16;;;;;;;5.72;1.90;;;;;;;;;;4985990;28;20212;-62
2023/07/12 00:36:42;;;;;;;5.00;1.90;;;;;;;;;;4989173;28;20643;-62
2023/07/12 00:39:09;;;;;;;3.35;1.88;;;;;;;;;;4988427;28;20263;-62
2023/07/12 00:41:53;;;;;;;3.70;1.92;;;;;;;;;;4968554;28;20209;-61
2023/07/12 00:44:20;;;;;;;6.97;1.98;;;;;;;;;;4987404;28;20264;-62
2023/07/12 00:46:49;;;;;;;6.47;2.30;;;;;;;;;;4989255;28;20217;-62
2023/07/12 00:49:14;;;;;;;5.20;2.05;;;;;;;;;;4969871;28;20576;-62
2023/07/12 00:51:47;;;;;;;3.88;2.00;;;;;;;;;;4986240;28;20197;-62
2023/07/12 00:54:14;;;;;;;5.90;2.05;;;;;;;;;;4961989;28;20250;-62
2023/07/12 00:56:39;;;;;;;3.85;2.03;;;;;;;;;;4970918;28;20281;-62
2023/07/12 00:59:06;;;;;;;4.93;2.22;;;;;;;;;;4987189;28;20225;-63
2023/07/12 01:01:32;;;;;;;6.18;2.05;;;;;;;;;;4986718;28;20220;-63
2023/07/12 01:03:58;;;;;;;4.82;2.13;;;;;;;;;;4988611;28;20288;-63
2023/07/12 01:06:23;;;;;;;3.65;1.80;;;;;;;;;;4988059;28;20217;-62
2023/07/12 01:08:49;;;;;;;8.98;2.10;;;;;;;;;;4964747;28;20206;-63
2023/07/12 01:11:15;;;;;;;4.65;2.00;;;;;;;;;;4970832;28;20699;-63
2023/07/12 01:13:42;;;;;;;6.00;2.20;;;;;;;;;;4965905;28;20225;-63
2023/07/12 01:16:07;;;;;;;4.38;2.00;;;;;;;;;;4966596;28;20560;-63
2023/07/12 01:18:33;;;;;;;8.60;2.22;;;;;;;;;;4948239;28;20826;-63
2023/07/12 01:21:03;;;;;;;6.35;2.40;;;;;;;;;;4966434;28;20220;-63
2023/07/12 01:23:29;;;;;;;8.25;2.75;;;;;;;;;;4947211;28;20238;-62
2023/07/12 01:26:24;;;;;;;7.38;2.63;;;;;;;;;;4941867;28;20301;-63
2023/07/12 01:28:51;;;;;;;6.47;2.75;;;;;;;;;;4938897;28;20215;-63
2023/07/12 01:31:16;;;;;;;7.10;2.63;;;;;;;;;;4938728;28;20228;-62
2023/07/12 01:36:44;;;;;;;6.85;2.63;;;;;;;;;;4947731;28;20356;-63
2023/07/12 01:39:09;;;;;;;10.52;2.90;;;;;;;;;;4947313;28;20346;-62
2023/07/12 01:41:35;;;;;;;5.55;2.40;;;;;;;;;;4946799;28;20215;-63
2023/07/12 01:44:00;;;;;;;8.75;2.85;;;;;;;;;;4947433;28;20967;-62
2023/07/12 01:46:25;;;;;;;5.43;2.50;;;;;;;;;;4958058;28;20224;-62
2023/07/12 01:48:51;;;;;;;7.15;3.00;;;;;;;;;;4959139;28;20235;-62
2023/07/12 01:51:16;;;;;;;7.80;2.92;;;;;;;;;;4957908;28;20229;-63
2023/07/12 01:53:42;;;;;;;6.63;2.65;;;;;;;;;;4937118;28;20210;-62
2023/07/12 01:56:08;;;;;;;10.55;2.67;;;;;;;;;;4945382;28;20775;-63
2023/07/12 01:58:34;;;;;;;9.63;2.70;;;;;;;;;;4946506;28;20238;-62
2023/07/12 02:00:59;;;;;;;6.68;2.35;;;;;;;;;;4965054;28;20710;-62
2023/07/12 02:03:25;;;;;;;7.70;2.72;;;;;;;;;;4945793;28;20588;-63
2023/07/12 02:05:50;;;;;;;9.65;2.60;;;;;;;;;;4945776;28;20221;-62
2023/07/12 02:08:15;;;;;;;7.95;2.40;;;;;;;;;;4947644;28;20221;-62
2023/07/12 02:10:41;;;;;;;8.20;3.05;;;;;;;;;;4945689;28;20242;-62
2023/07/12 02:13:06;;;;;;;9.60;3.40;;;;;;;;;;4964604;28;20670;-62
2023/07/12 02:15:31;;;;;;;8.52;2.80;;;;;;;;;;4969066;28;20226;-62
2023/07/12 02:17:57;;;;;;;9.43;2.75;;;;;;;;;;4965557;28;20221;-62
2023/07/12 02:20:22;;;;;;;9.05;2.50;;;;;;;;;;4967630;28;20221;-63
2023/07/12 02:22:48;;;;;;;8.68;2.42;;;;;;;;;;4968301;28;20233;-63
2023/07/12 02:25:13;;;;;;;9.27;2.50;;;;;;;;;;4966531;28;20214;-63
2023/07/12 02:27:39;;;;;;;9.13;2.45;;;;;;;;;;4965883;28;20225;-63
2023/07/12 02:30:05;;;;;;;11.48;2.80;;;;;;;;;;4967988;28;20222;-64
2023/07/12 02:32:30;;;;;;;10.13;2.92;;;;;;;;;;4948976;28;21148;-64
2023/07/12 02:34:56;;;;;;;10.50;3.20;;;;;;;;;;4939226;28;20246;-64
2023/07/12 02:37:21;;;;;;;9.55;2.72;;;;;;;;;;4939520;28;20709;-64
2023/07/12 02:39:46;;;;;;;5.57;2.38;;;;;;;;;;4945641;28;20749;-64
2023/07/12 02:42:12;;;;;;;10.48;2.80;;;;;;;;;;4947991;28;20222;-64
2023/07/12 02:44:38;;;;;;;10.05;3.05;;;;;;;;;;4946118;28;20234;-64
2023/07/12 02:47:04;;;;;;;9.95;2.75;;;;;;;;;;4946814;28;20218;-64
2023/07/12 02:49:29;;;;;;;11.23;3.08;;;;;;;;;;4951851;28;20880;-63
2023/07/12 02:51:54;;;;;;;9.52;2.50;;;;;;;;;;4950928;28;20209;-63
2023/07/12 02:54:20;;;;;;;8.52;2.80;;;;;;;;;;4942359;28;20233;-63
2023/07/12 02:56:45;;;;;;;6.75;2.40;;;;;;;;;;4943085;28;20273;-63
2023/07/12 02:59:10;;;;;;;6.68;2.20;;;;;;;;;;4942777;28;20228;-63
2023/07/12 03:01:36;;;;;;;7.25;2.65;;;;;;;;;;4948009;28;20739;-63
2023/07/12 03:04:01;;;;;;;9.10;2.80;;;;;;;;;;4949082;28;20575;-63
2023/07/12 03:06:27;;;;;;;11.57;2.47;;;;;;;;;;4951422;28;20791;-63
2023/07/12 03:08:52;;;;;;;8.13;2.15;;;;;;;;;;4949927;28;20238;-63
2023/07/12 03:11:17;;;;;;;7.63;2.22;;;;;;;;;;4949369;28;20218;-62
2023/07/12 03:13:42;;;;;;;8.10;2.10;;;;;;;;;;4950201;28;20238;-62
2023/07/12 03:16:08;;;;;;;9.82;2.20;;;;;;;;;;4946212;28;20227;-62
2023/07/12 03:18:34;;;;;;;7.05;2.00;;;;;;;;;;4941749;28;20221;-63
2023/07/12 03:21:00;;;;;;;8.40;2.28;;;;;;;;;;4942973;28;20218;-63
2023/07/12 03:23:25;;;;;;;6.57;2.15;;;;;;;;;;4947227;28;20229;-62
2023/07/12 03:25:50;;;;;;;6.80;2.03;;;;;;;;;;4945988;28;20217;-63
2023/07/12 03:28:16;;;;;;;10.70;2.35;;;;;;;;;;4940743;28;20762;-63
2023/07/12 03:30:41;;;;;;;6.18;1.98;;;;;;;;;;4942217;28;20850;-62
2023/07/12 03:33:06;;;;;;;8.38;1.88;;;;;;;;;;4947717;28;20230;-62
2023/07/12 03:35:32;;;;;;;10.43;1.80;;;;;;;;;;4949132;28;20704;-62
2023/07/12 03:37:57;;;;;;;7.63;2.20;;;;;;;;;;4950362;28;20493;-62
2023/07/12 03:40:22;;;;;;;7.90;2.38;;;;;;;;;;4967231;28;20279;-62
2023/07/12 03:42:48;;;;;;;6.63;2.30;;;;;;;;;;4968112;28;20753;-62
2023/07/12 03:45:13;;;;;;;8.05;2.20;;;;;;;;;;4967095;28;20281;-62
2023/07/12 03:47:38;;;;;;;8.10;2.20;;;;;;;;;;4965964;28;20206;-62
2023/07/12 03:50:04;;;;;;;6.65;2.28;;;;;;;;;;4958977;28;20270;-62
2023/07/12 03:52:29;;;;;;;4.97;1.88;;;;;;;;;;4938129;28;20975;-62
2023/07/12 03:54:55;;;;;;;8.68;2.20;;;;;;;;;;4945690;28;20314;-62
2023/07/12 03:57:20;;;;;;;7.00;1.98;;;;;;;;;;4948740;28;20229;-62
2023/07/12 03:59:45;;;;;;;6.32;2.22;;;;;;;;;;4949401;28;20218;-62
2023/07/12 04:02:11;;;;;;;8.05;2.22;;;;;;;;;;4947806;28;20218;-62
2023/07/12 04:04:36;;;;;;;7.15;2.13;;;;;;;;;;4946881;28;20241;-62
2023/07/12 04:07:02;;;;;;;8.82;2.45;;;;;;;;;;4942645;28;20214;-62
2023/07/12 04:09:27;;;;;;;9.20;2.65;;;;;;;;;;4948857;28;20221;-62
2023/07/12 04:11:53;;;;;;;8.80;2.35;;;;;;;;;;4939077;28;20218;-63
2023/07/12 04:14:18;;;;;;;8.68;2.60;;;;;;;;;;4939801;28;20215;-61
2023/07/12 04:16:44;;;;;;;7.88;3.08;;;;;;;;;;4944031;28;20217;-61
2023/07/12 04:19:09;;;;;;;11.38;3.88;;;;;;;;;;4947036;28;20430;-61
2023/07/12 04:21:35;;;;;;;5.53;3.20;;;;;;;;;;4948964;28;20562;-60
2023/07/12 04:24:00;;;;;;;9.43;3.90;;;;;;;;;;4949550;28;20226;-60
2023/07/12 04:26:25;;;;;;;7.82;3.88;;;;;;;;;;4949157;28;20633;-59
2023/07/12 04:28:51;;;;;;;11.05;4.22;;;;;;;;;;4953974;28;20309;-60
2023/07/12 04:31:17;;;;;;;11.88;4.55;;;;;;;;;;4947837;28;20218;-60
2023/07/12 04:33:42;;;;;;;9.10;4.65;;;;;;;;;;4939184;28;20388;-60
2023/07/12 04:36:08;;;;;;;8.88;4.88;;;;;;;;;;4939070;28;20748;-60
2023/07/12 04:38:34;;;;;;;9.75;5.45;;;;;;;;;;4938189;28;20281;-60
2023/07/12 04:40:59;;;;;;;11.50;5.95;;;;;;;;;;4946975;28;20214;-60
2023/07/12 04:43:24;;;;;;;12.15;6.30;;;;;;;;;;4947676;28;20740;-60
2023/07/12 04:45:50;;;;;;;14.35;7.50;;;;;;;;;;4947397;28;20300;-60
2023/07/12 04:48:15;;;;;;;11.57;7.57;;;;;;;;;;4948479;28;20234;-61
2023/07/12 04:50:41;;;;;;;11.38;7.57;;;;;;;;;;4948879;28;20584;-61
2023/07/12 04:53:06;;;;;;;14.25;8.35;;;;;;;;;;4947631;28;20694;-60
2023/07/12 04:55:32;;;;;;;12.80;8.37;;;;;;;;;;4944142;28;20967;-60
2023/07/12 04:57:58;;;;;;;13.35;8.70;;;;;;;;;;4941727;28;20763;-60
2023/07/12 05:00:24;;;;;;;18.45;9.73;;;;;;;;;;4938226;28;20217;-60
2023/07/12 05:02:50;;;;;;;13.18;8.48;;;;;;;;;;4942615;28;20234;-60
2023/07/12 05:05:15;;;;;;;14.45;9.55;;;;;;;;;;4949221;28;20240;-60
2023/07/12 05:07:41;;;;;;;15.55;10.23;;;;;;;;;;4947542;28;20216;-60
2023/07/12 05:10:06;;;;;;;14.68;9.57;;;;;;;;;;4947293;28;20213;-61
2023/07/12 05:12:32;;;;;;;16.80;10.52;;;;;;;;;;4955444;28;20284;-60
2023/07/12 05:14:57;;;;;;;16.67;10.00;;;;;;;;;;4963721;28;20598;-60
2023/07/12 05:17:23;;;;;;;18.73;10.10;;;;;;;;;;4968992;28;20229;-60
2023/07/12 05:19:48;;;;;;;22.75;11.27;;;;;;;;;;4967477;28;20218;-60
2023/07/12 05:22:13;;;;;;;18.42;11.23;;;;;;;;;;4966125;28;20206;-60
2023/07/12 05:24:39;;;;;;;19.42;11.57;;;;;;;;;;4969709;28;20621;-60
2023/07/12 05:27:04;;;;;;;20.27;11.63;;;;;;;;;;4968611;28;20765;-60
2023/07/12 05:29:29;;;;;;;17.27;10.05;;;;;;;;;;4966746;28;20221;-60
2023/07/12 05:31:55;;;;;;;21.42;11.60;;;;;;;;;;4968676;28;20285;-60
2023/07/12 05:34:20;;;;;;;19.55;11.45;;;;;;;;;;4968855;28;20233;-60
2023/07/12 05:36:46;;;;;;;15.00;11.07;;;;;;;;;;4968235;28;20260;-60
2023/07/12 05:39:11;;;;;;;18.65;11.10;;;;;;;;;;4967437;28;20218;-60
2023/07/12 05:41:37;;;;;;;19.15;11.55;;;;;;;;;;4967765;28;20674;-60
2023/07/12 05:44:03;;;;;;;17.55;11.13;;;;;;;;;;4966480;28;20314;-61
2023/07/12 05:46:29;;;;;;;20.33;11.65;;;;;;;;;;4965528;28;20222;-60
2023/07/12 05:48:54;;;;;;;14.32;10.02;;;;;;;;;;4968783;28;20225;-60
2023/07/12 05:51:20;;;;;;;14.95;9.95;;;;;;;;;;4968298;28;20672;-60
2023/07/12 05:53:46;;;;;;;15.32;10.48;;;;;;;;;;4966260;28;20252;-60
2023/07/12 05:56:12;;;;;;;17.10;9.60;;;;;;;;;;4967257;28;20214;-60
2023/07/12 05:58:38;;;;;;;14.70;8.82;;;;;;;;;;4967761;28;20304;-60
2023/07/12 06:01:03;;;;;;;17.73;8.68;;;;;;;;;;4965007;28;20212;-60
2023/07/12 06:03:29;;;;;;;13.38;8.13;;;;;;;;;;4966677;28;20249;-60
2023/07/12 06:05:54;;;;;;;14.38;7.93;;;;;;;;;;4968533;28;20214;-60
2023/07/12 06:08:20;;;;;;;14.32;8.00;;;;;;;;;;4968498;28;20255;-60
2023/07/12 06:10:45;;;;;;;16.02;7.53;;;;;;;;;;4966848;28;20712;-61
2023/07/12 06:13:11;;;;;;;13.90;7.05;;;;;;;;;;4967920;28;20228;-60
2023/07/12 06:15:37;;;;;;;16.67;6.95;;;;;;;;;;4969133;28;20575;-60
2023/07/12 06:18:02;;;;;;;12.65;6.28;;;;;;;;;;4966978;28;20736;-60
2023/07/12 06:20:28;;;;;;;14.00;6.55;;;;;;;;;;4967194;28;20217;-60
2023/07/12 06:22:53;;;;;;;13.02;6.13;;;;;;;;;;4966547;28;20218;-59
2023/07/12 06:25:19;;;;;;;10.85;5.60;;;;;;;;;;4972642;28;20226;-59
2023/07/12 06:27:45;;;;;;;13.98;5.72;;;;;;;;;;4973333;28;20289;-60
2023/07/12 06:30:10;;;;;;;11.85;6.20;;;;;;;;;;4972070;28;20301;-60
2023/07/12 06:32:37;;;;;;;14.90;5.88;;;;;;;;;;4968714;28;20225;-59
2023/07/12 06:35:03;;;;;;;11.43;5.82;;;;;;;;;;4971856;28;20545;-59
2023/07/12 06:37:28;;;;;;;10.27;5.60;;;;;;;;;;4972363;28;20229;-59
2023/07/12 06:39:54;;;;;;;12.48;5.35;;;;;;;;;;4967785;28;20681;-59
2023/07/12 06:42:19;;;;;;;13.95;5.30;;;;;;;;;;4971864;28;20267;-60
2023/07/12 06:44:44;;;;;;;15.00;5.22;;;;;;;;;;4972088;28;20255;-60
2023/07/12 06:47:10;;;;;;;10.18;4.60;;;;;;;;;;4970430;28;20217;-60
2023/07/12 06:49:35;;;;;;;11.10;5.25;;;;;;;;;;4974822;28;20349;-59
2023/07/12 06:52:02;;;;;;;13.38;4.63;;;;;;;;;;4974417;28;20272;-59
2023/07/12 06:54:27;;;;;;;12.95;4.93;;;;;;;;;;4970040;28;20572;-60
2023/07/12 06:56:52;;;;;;;10.80;4.68;;;;;;;;;;4971178;28;20681;-60
2023/07/12 06:59:18;;;;;;;14.57;5.00;;;;;;;;;;4971246;28;20673;-59
2023/07/12 07:01:44;;;;;;;14.07;4.82;;;;;;;;;;4969239;28;20230;-59
2023/07/12 07:04:10;;;;;;;11.38;4.80;;;;;;;;;;4970571;28;20292;-59
2023/07/12 07:06:35;;;;;;;10.05;4.68;;;;;;;;;;4971890;28;20213;-60
2023/07/12 07:09:00;;;;;;;14.38;4.90;;;;;;;;;;4970257;28;20217;-59
2023/07/12 07:11:26;;;;;;;15.57;5.25;;;;;;;;;;4969994;28;20241;-59
2023/07/12 07:13:51;;;;;;;12.40;5.10;;;;;;;;;;4971860;28;20268;-60
2023/07/12 07:16:17;;;;;;;13.63;5.22;;;;;;;;;;4970889;28;20221;-60
2023/07/12 07:18:42;;;;;;;11.73;4.72;;;;;;;;;;4969702;28;20224;-60
2023/07/12 07:21:08;;;;;;;14.15;5.15;;;;;;;;;;4970903;28;20226;-60
2023/07/12 07:23:33;;;;;;;11.43;5.03;;;;;;;;;;4988075;28;20236;-60
2023/07/12 07:26:05;;;;;;;13.25;4.90;;;;;;;;;;4970535;28;20214;-60
2023/07/12 07:28:30;;;;;;;14.07;5.03;;;;;;;;;;4969121;28;20296;-60
2023/07/12 07:30:55;;;;;;;13.77;5.20;;;;;;;;;;4971616;28;20804;-60
2023/07/12 07:33:21;;;;;;;15.93;5.60;;;;;;;;;;4970581;28;20229;-60
2023/07/12 07:35:46;;;;;;;14.38;5.45;;;;;;;;;;4968593;28;20221;-60
2023/07/12 07:38:13;;;;;;;12.02;4.88;;;;;;;;;;4971009;28;20218;-60
2023/07/12 07:40:39;;;;;;;15.95;5.93;;;;;;;;;;4970880;28;20308;-60
2023/07/12 07:43:04;;;;;;;12.48;5.20;;;;;;;;;;4969125;28;20565;-60
2023/07/12 07:45:30;;;;;;;14.30;5.50;;;;;;;;;;4970274;28;20222;-60
2023/07/12 07:47:55;;;;;;;12.70;5.50;;;;;;;;;;4973123;28;20231;-60
2023/07/12 07:50:21;;;;;;;13.68;6.07;;;;;;;;;;4972079;28;20226;-60
2023/07/12 07:52:46;;;;;;;17.48;5.05;;;;;;;;;;4970326;28;20221;-60
2023/07/12 07:55:11;;;;;;;16.55;5.72;;;;;;;;;;4969419;28;20225;-60
2023/07/12 07:57:36;;;;;;;11.95;5.53;;;;;;;;;;4970357;28;20209;-59
2023/07/12 08:00:05;;;;;;;14.23;4.78;;;;;;;;;;4969953;28;20220;-60
2023/07/12 08:02:31;;;;;;;13.43;4.85;;;;;;;;;;4969076;28;20571;-60
2023/07/12 08:04:56;;;;;;;14.38;4.78;;;;;;;;;;4970489;28;20482;-59
2023/07/12 08:07:23;;;;;;;13.13;4.88;;;;;;;;;;4970230;28;20220;-60
2023/07/12 08:09:48;;;;;;;14.55;4.70;;;;;;;;;;4968788;28;20213;-60
2023/07/12 08:12:14;;;;;;;11.68;4.68;;;;;;;;;;4969393;28;20210;-60
2023/07/12 08:14:40;;;;;;;11.10;4.80;;;;;;;;;;4970549;28;20993;-60
2023/07/12 08:17:06;;;;;;;12.90;4.45;;;;;;;;;;4969366;28;20213;-60
2023/07/12 08:19:31;;;;;;;14.85;4.72;;;;;;;;;;4968715;28;20231;-60
2023/07/12 08:21:56;;;;;;;13.65;4.40;;;;;;;;;;4970521;28;20387;-60
2023/07/12 08:24:22;;;;;;;10.48;4.43;;;;;;;;;;4969286;28;20225;-60
2023/07/12 08:26:47;;;;;;;13.20;4.70;;;;;;;;;;4968299;28;20218;-60
2023/07/12 08:29:12;;;;;;;14.43;5.18;;;;;;;;;;4969872;28;20218;-60
2023/07/12 08:31:38;;;;;;;14.38;4.95;;;;;;;;;;4970133;28;20214;-60
2023/07/12 08:34:03;;;;;;;12.63;4.88;;;;;;;;;;4967255;28;20304;-60
2023/07/12 08:36:29;;;;;;;16.08;5.40;;;;;;;;;;4969603;28;20217;-60
2023/07/12 08:38:54;;;;;;;13.95;5.20;;;;;;;;;;4969010;28;20260;-60
2023/07/12 08:41:21;;;;;;;12.30;5.28;;;;;;;;;;4974409;28;20221;-60
2023/07/12 08:43:46;;;;;;;12.38;5.30;;;;;;;;;;4984890;28;20229;-59
2023/07/12 08:46:14;;;;;;;13.35;4.70;;;;;;;;;;4970599;28;20692;-60
2023/07/12 08:48:39;;;;;;;10.93;4.88;;;;;;;;;;4989751;28;20224;-60
2023/07/12 08:51:11;;;;;;;13.98;5.18;;;;;;;;;;4968182;28;20213;-59
2023/07/12 08:53:36;;;;;;;13.27;5.00;;;;;;;;;;4970385;28;20220;-60
2023/07/12 08:56:04;;;;;;;12.80;4.68;;;;;;;;;;4989160;28;20217;-59
2023/07/12 08:58:33;;;;;;;10.65;4.53;;;;;;;;;;4969989;28;20371;-59
2023/07/12 09:01:02;;;;;;;15.00;4.60;;;;;;;;;;4987282;28;20209;-60
2023/07/12 09:03:27;;;;;;;12.77;4.90;;;;;;;;;;4971123;28;20220;-60
2023/07/12 09:05:52;;;;;;;12.90;4.60;;;;;;;;;;4989029;28;20220;-60
2023/07/12 09:08:19;;;;;;;12.80;5.05;;;;;;;;;;4985688;28;20225;-60
2023/07/12 09:10:46;;;;;;;10.80;4.22;;;;;;;;;;4971120;28;20748;-60
2023/07/12 09:13:12;;;;;;;13.10;4.40;;;;;;;;;;4970935;28;20214;-60
2023/07/12 09:15:39;;;;;;;14.98;5.18;;;;;;;;;;4967970;28;20559;-60
2023/07/12 09:18:05;;;;;;;13.98;4.63;;;;;;;;;;4968138;28;20217;-60
2023/07/12 09:20:32;;;;;;;12.23;4.30;;;;;;;;;;4970890;28;20213;-60
2023/07/12 09:22:57;;;;;;;10.18;4.40;;;;;;;;;;4988361;28;20229;-60
2023/07/12 09:25:24;;;;;;;13.25;4.07;;;;;;;;;;4985999;28;20569;-60
2023/07/12 09:27:49;;;;;;;12.05;4.13;;;;;;;;;;4970568;28;20654;-60
2023/07/12 09:30:18;;;;;;;13.97;4.17;;;;;;;;;;4988082;28;20421;-60
2023/07/12 09:32:43;;;;;;;12.68;3.83;;;;;;;;;;4986453;28;20290;-60
2023/07/12 09:35:23;;;;;;;12.77;3.63;;;;;;;;;;4969469;28;20584;-61
2023/07/12 09:37:55;;;;;;;9.82;3.53;;;;;;;;;;4988770;28;20215;-60
2023/07/12 09:40:21;;;;;;;10.27;3.30;;;;;;;;;;4988250;28;20225;-61
2023/07/12 09:42:47;;;;;;;12.10;3.90;;;;;;;;;;4985815;28;20212;-61
2023/07/12 09:45:12;;;;;;;11.40;3.60;;;;;;;;;;4987258;28;20236;-61
2023/07/12 09:47:51;;;;;;;10.27;3.50;;;;;;;;;;4988202;28;20278;-61
2023/07/12 09:50:23;;;;;;;10.65;3.28;;;;;;;;;;4968773;28;20217;-61
2023/07/12 09:52:53;;;;;;;11.98;3.40;;;;;;;;;;4985923;28;20217;-61
2023/07/12 09:55:20;;;;;;;9.63;2.92;;;;;;;;;;4971487;28;20225;-61
2023/07/12 09:57:52;;;;;;;7.80;2.72;;;;;;;;;;4974341;28;20759;-61
2023/07/12 10:00:25;;;;;;;8.98;2.70;;;;;;;;;;4990451;28;20285;-61
2023/07/12 10:03:10;;;;;;;7.88;2.55;;;;;;;;;;4990496;28;20304;-61
2023/07/12 10:05:36;;;;;;;10.80;3.20;;;;;;;;;;4973542;28;20298;-60
2023/07/12 10:08:03;;;;;;;9.45;2.95;;;;;;;;;;4991630;28;20241;-60
2023/07/12 10:10:30;;;;;;;10.02;2.95;;;;;;;;;;4989996;28;20215;-60
2023/07/12 10:13:12;;;;;;;11.25;3.83;;;;;;;;;;4992189;28;20241;-60
2023/07/12 10:15:37;;;;;;;10.20;3.38;;;;;;;;;;4991883;28;20251;-60
2023/07/12 10:18:03;;;;;;;12.45;3.00;;;;;;;;;;4972533;28;20299;-61
2023/07/12 10:20:28;;;;;;;10.10;3.33;;;;;;;;;;4972205;28;20245;-60
2023/07/12 10:22:54;;;;;;;11.45;3.03;;;;;;;;;;4973899;28;20419;-61
2023/07/12 10:25:20;;;;;;;9.75;3.30;;;;;;;;;;4991142;28;20232;-61
2023/07/12 10:27:48;;;;;;;11.82;3.33;;;;;;;;;;4990104;28;20379;-61
2023/07/12 10:30:15;;;;;;;8.75;2.83;;;;;;;;;;4991060;28;20213;-61
2023/07/12 10:32:41;;;;;;;9.15;2.88;;;;;;;;;;4991415;28;20229;-60
2023/07/12 10:35:07;;;;;;;8.50;2.83;;;;;;;;;;4974461;28;20217;-61
2023/07/12 10:37:35;;;;;;;12.43;3.00;;;;;;;;;;4994531;28;20242;-61
2023/07/12 10:40:22;;;;;;;9.18;2.90;;;;;;;;;;4987185;28;20689;-60
2023/07/12 10:42:51;;;;;;;10.13;3.35;;;;;;;;;;4987282;28;20318;-60
2023/07/12 10:45:18;;;;;;;9.88;3.10;;;;;;;;;;4972766;28;20232;-61
2023/07/12 10:47:43;;;;;;;10.82;3.10;;;;;;;;;;4990886;28;20213;-60
2023/07/12 10:50:28;;;;;;;12.15;3.50;;;;;;;;;;4987089;28;20747;-61
2023/07/12 10:52:55;;;;;;;9.98;3.38;;;;;;;;;;4990073;28;20213;-61
2023/07/12 10:55:22;;;;;;;10.82;3.50;;;;;;;;;;4990605;28;20253;-61
2023/07/12 10:57:49;;;;;;;12.23;3.90;;;;;;;;;;4971697;28;20209;-61
2023/07/12 11:00:15;;;;;;;10.52;3.28;;;;;;;;;;4989130;28;20700;-61
2023/07/12 11:02:43;;;;;;;10.07;3.72;;;;;;;;;;4991320;28;20347;-61
2023/07/12 11:05:28;;;;;;;9.55;3.65;;;;;;;;;;4989383;28;20291;-60
2023/07/12 11:07:53;;;;;;;9.65;3.30;;;;;;;;;;4987862;28;20216;-61
2023/07/12 11:10:23;;;;;;;10.20;3.47;;;;;;;;;;4989067;28;20224;-60
2023/07/12 11:12:50;;;;;;;8.70;3.47;;;;;;;;;;4985759;28;20709;-61
2023/07/12 11:15:17;;;;;;;8.80;3.20;;;;;;;;;;4987746;28;20217;-61
2023/07/12 11:17:51;;;;;;;8.50;2.75;;;;;;;;;;4988906;28;20693;-60
2023/07/12 11:20:20;;;;;;;8.77;2.70;;;;;;;;;;4971802;28;20731;-60
2023/07/12 11:22:55;;;;;;;12.15;3.05;;;;;;;;;;4990746;28;20241;-61
2023/07/12 11:25:33;;;;;;;10.13;2.65;;;;;;;;;;4988176;28;20376;-61
2023/07/12 11:28:00;;;;;;;11.55;3.72;;;;;;;;;;4988692;28;20212;-60
2023/07/12 11:30:26;;;;;;;11.57;2.60;;;;;;;;;;4990281;28;20296;-60
2023/07/12 11:33:01;;;;;;;10.52;2.85;;;;;;;;;;4990835;28;20753;-60
2023/07/12 11:35:31;;;;;;;10.57;2.80;;;;;;;;;;4987437;28;20216;-60
2023/07/12 11:37:57;;;;;;;8.65;2.42;;;;;;;;;;4990104;28;20232;-60
2023/07/12 11:40:25;;;;;;;8.60;2.70;;;;;;;;;;4990241;28;20209;-60
2023/07/12 11:42:50;;;;;;;8.52;2.60;;;;;;;;;;4988860;28;20209;-60
2023/07/12 11:45:17;;;;;;;8.55;2.40;;;;;;;;;;4988291;28;20236;-60
2023/07/12 11:47:43;;;;;;;8.98;2.40;;;;;;;;;;4990274;28;20209;-60
2023/07/12 11:50:10;;;;;;;8.90;2.70;;;;;;;;;;4971236;28;20665;-60
2023/07/12 11:52:35;;;;;;;10.10;2.67;;;;;;;;;;4969917;28;20217;-60
2023/07/12 11:55:03;;;;;;;9.45;2.75;;;;;;;;;;4990231;28;20216;-60
2023/07/12 11:57:28;;;;;;;10.15;2.78;;;;;;;;;;4989127;28;20225;-60
2023/07/12 11:59:53;;;;;;;8.50;3.10;;;;;;;;;;4970096;28;20212;-60
2023/07/12 12:02:20;;;;;;;6.88;2.70;;;;;;;;;;4970009;28;20235;-60
2023/07/12 12:04:51;;;;;;;11.38;2.50;;;;;;;;;;4989817;28;20244;-60
2023/07/12 12:07:24;;;;;;;11.77;2.50;;;;;;;;;;4989335;28;20264;-60
2023/07/12 12:09:50;;;;;;;7.35;2.30;;;;;;;;;;4987410;28;20225;-60
2023/07/12 12:12:16;;;;;;;9.88;2.42;;;;;;;;;;4971451;28;20220;-59
2023/07/12 12:14:41;;;;;;;7.32;2.15;;;;;;;;;;4989985;28;20656;-60
2023/07/12 12:17:12;;;;;;;8.18;2.35;;;;;;;;;;4987467;28;20237;-60
2023/07/12 12:19:37;;;;;;;11.00;2.70;;;;;;;;;;4988496;28;20213;-60
2023/07/12 12:22:03;;;;;;;9.00;2.38;;;;;;;;;;4989394;28;20558;-60
2023/07/12 12:24:33;;;;;;;9.65;2.80;;;;;;;;;;4988620;28;20681;-60
2023/07/12 12:26:58;;;;;;;7.70;2.40;;;;;;;;;;4968983;28;20301;-60
2023/07/12 12:29:24;;;;;;;7.25;2.40;;;;;;;;;;4989064;28;20652;-60
2023/07/12 12:31:50;;;;;;;9.15;2.60;;;;;;;;;;4989242;28;20702;-60
2023/07/12 12:34:16;;;;;;;7.28;1.98;;;;;;;;;;4987267;28;20208;-60
2023/07/12 12:36:58;;;;;;;9.02;2.17;;;;;;;;;;4988755;28;20213;-60
2023/07/12 12:39:23;;;;;;;7.25;1.90;;;;;;;;;;4988402;28;20324;-60
2023/07/12 12:41:49;;;;;;;9.63;2.30;;;;;;;;;;4989459;28;20752;-60
2023/07/12 12:44:15;;;;;;;7.95;1.90;;;;;;;;;;4986074;28;20764;-59
2023/07/12 12:46:41;;;;;;;8.93;2.10;;;;;;;;;;4987569;28;20432;-60
2023/07/12 12:49:17;;;;;;;7.00;2.00;;;;;;;;;;4987791;28;20236;-60
2023/07/12 12:51:42;;;;;;;8.88;2.20;;;;;;;;;;4987506;28;20699;-60
2023/07/12 12:54:08;;;;;;;7.70;2.28;;;;;;;;;;4987228;28;20228;-60
2023/07/12 12:56:34;;;;;;;10.88;2.70;;;;;;;;;;4989284;28;20215;-59
2023/07/12 12:59:00;;;;;;;9.23;2.15;;;;;;;;;;4988229;28;20212;-59
2023/07/12 13:01:25;;;;;;;8.88;2.10;;;;;;;;;;4985879;28;20551;-59
2023/07/12 13:03:51;;;;;;;8.98;2.20;;;;;;;;;;4988984;28;20245;-59
2023/07/12 13:06:18;;;;;;;10.32;2.40;;;;;;;;;;4987729;28;20328;-59
2023/07/12 13:08:43;;;;;;;8.40;2.20;;;;;;;;;;4969113;28;20291;-59
2023/07/12 13:11:09;;;;;;;5.65;2.05;;;;;;;;;;4987852;28;20293;-60
2023/07/12 13:13:34;;;;;;;7.30;2.15;;;;;;;;;;4970694;28;20205;-60
2023/07/12 13:15:59;;;;;;;7.65;2.78;;;;;;;;;;4988079;28;20217;-60
2023/07/12 13:18:25;;;;;;;8.18;1.85;;;;;;;;;;4986835;28;20221;-60
2023/07/12 13:20:52;;;;;;;5.88;1.80;;;;;;;;;;4970819;28;20202;-59
2023/07/12 13:23:18;;;;;;;8.20;1.73;;;;;;;;;;4987755;28;20244;-60
2023/07/12 13:25:50;;;;;;;7.53;1.80;;;;;;;;;;4986535;28;20217;-60
2023/07/12 13:28:15;;;;;;;5.63;1.60;;;;;;;;;;4986987;28;20681;-60
2023/07/12 13:30:40;;;;;;;6.15;1.63;;;;;;;;;;4987036;28;20272;-60
2023/07/12 13:33:11;;;;;;;6.28;1.60;;;;;;;;;;4971520;28;20280;-60
2023/07/12 13:35:36;;;;;;;6.75;1.70;;;;;;;;;;4963538;28;20224;-60
2023/07/12 13:38:02;;;;;;;6.30;1.58;;;;;;;;;;4968260;28;20219;-60
2023/07/12 13:40:27;;;;;;;5.07;1.42;;;;;;;;;;4967151;28;20217;-60
2023/07/12 13:42:53;;;;;;;4.70;1.40;;;;;;;;;;4972210;28;20221;-60
2023/07/12 13:45:18;;;;;;;4.47;1.33;;;;;;;;;;4969793;28;20214;-60
2023/07/12 13:47:44;;;;;;;5.55;1.50;;;;;;;;;;4971426;28;20334;-60
2023/07/12 13:50:11;;;;;;;5.10;1.40;;;;;;;;;;4971756;28;20225;-60
2023/07/12 13:52:37;;;;;;;4.68;1.35;;;;;;;;;;4958128;28;20814;-60
2023/07/12 13:55:04;;;;;;;4.85;1.33;;;;;;;;;;4968550;28;20214;-60
2023/07/12 13:57:31;;;;;;;5.40;1.30;;;;;;;;;;4962754;28;20213;-60
2023/07/12 13:59:57;;;;;;;4.30;1.30;;;;;;;;;;4963907;28;20209;-60
2023/07/12 14:02:24;;;;;;;5.22;1.30;;;;;;;;;;4963853;28;20598;-59
2023/07/12 14:04:50;;;;;;;6.00;1.40;;;;;;;;;;4969570;28;20335;-59
2023/07/12 14:07:15;;;;;;;4.85;1.00;;;;;;;;;;4972075;28;20217;-60
2023/07/12 14:09:41;;;;;;;3.38;1.20;;;;;;;;;;4970437;28;20660;-60
2023/07/12 14:12:11;;;;;;;5.10;1.38;;;;;;;;;;4969448;28;20209;-60
2023/07/12 14:14:37;;;;;;;6.43;1.40;;;;;;;;;;4970929;28;20292;-60
2023/07/12 14:17:02;;;;;;;5.30;1.08;;;;;;;;;;4970836;28;20305;-60
2023/07/12 14:19:27;;;;;;;2.65;1.08;;;;;;;;;;4963061;28;20242;-60
2023/07/12 14:21:53;;;;;;;3.38;0.90;;;;;;;;;;4962560;28;20310;-60
2023/07/12 14:24:18;;;;;;;3.80;1.17;;;;;;;;;;4965527;28;20831;-61
2023/07/12 14:26:44;;;;;;;3.67;1.15;;;;;;;;;;4976680;28;20716;-60
2023/07/12 14:29:09;;;;;;;4.20;1.10;;;;;;;;;;4969985;28;20224;-60
2023/07/12 14:31:36;;;;;;;4.25;1.20;;;;;;;;;;4972316;28;20213;-60
2023/07/12 14:34:01;;;;;;;6.07;1.15;;;;;;;;;;4970309;28;20243;-60